createdAt,value
2018-08-27T00:01:01.675Z,60.47
2018-08-27T00:03:29.869Z,61.58
2018-08-27T00:05:58.054Z,60.42
2018-08-27T00:08:26.245Z,61.00
2018-08-27T00:10:54.494Z,61.35
2018-08-27T00:13:22.647Z,61.88
2018-08-27T00:15:50.820Z,60.84
2018-08-27T00:18:19.008Z,61.33
2018-08-27T00:20:47.189Z,61.78
2018-08-27T00:23:15.368Z,61.18
2018-08-27T00:25:43.540Z,61.48
2018-08-27T00:28:11.735Z,61.78
2018-08-27T00:30:39.921Z,60.77
2018-08-27T00:33:08.099Z,61.61
2018-08-27T00:35:36.265Z,59.64
2018-08-27T00:38:04.444Z,60.40
2018-08-27T00:40:32.635Z,60.84
2018-08-27T00:43:00.837Z,61.48
2018-08-27T00:45:29.035Z,62.32
2018-08-27T00:47:57.457Z,62.81
2018-08-27T00:50:25.656Z,62.36
2018-08-27T00:52:53.854Z,62.04
2018-08-27T00:55:22.076Z,62.91
2018-08-27T00:57:50.252Z,62.25
2018-08-27T01:00:18.463Z,62.51
2018-08-27T01:02:46.916Z,63.48
2018-08-27T01:05:15.098Z,63.39
2018-08-27T01:07:43.286Z,63.08
2018-08-27T01:10:11.487Z,63.39
2018-08-27T01:12:39.709Z,64.31
2018-08-27T01:15:08.528Z,63.52
2018-08-27T01:17:36.711Z,64.14
2018-08-27T01:20:04.907Z,63.52
2018-08-27T01:22:33.169Z,63.55
2018-08-27T01:25:01.304Z,63.45
2018-08-27T01:27:29.484Z,64.82
2018-08-27T01:29:57.678Z,64.90
2018-08-27T01:32:26.959Z,65.43
2018-08-27T01:34:56.695Z,65.19
2018-08-27T01:37:24.874Z,65.60
2018-08-27T01:39:53.312Z,66.08
2018-08-27T01:42:22.336Z,64.82
2018-08-27T01:44:50.525Z,64.85
2018-08-27T01:47:18.747Z,64.49
2018-08-27T01:49:46.924Z,63.27
2018-08-27T01:52:15.111Z,64.49
2018-08-27T01:54:43.294Z,64.39
2018-08-27T01:57:11.485Z,65.23
2018-08-27T01:59:39.672Z,65.78
2018-08-27T02:02:07.876Z,65.86
2018-08-27T02:04:36.524Z,66.01
2018-08-27T02:07:04.780Z,65.96
2018-08-27T02:09:32.959Z,66.42
2018-08-27T02:12:01.168Z,67.60
2018-08-27T02:14:30.022Z,68.44
2018-08-27T02:16:58.631Z,68.26
2018-08-27T02:19:26.807Z,69.42
2018-08-27T02:21:55.030Z,69.47
2018-08-27T02:24:23.223Z,70.16
2018-08-27T02:26:51.432Z,70.74
2018-08-27T02:29:19.636Z,71.06
2018-08-27T02:31:47.819Z,71.28
2018-08-27T02:34:16.001Z,71.44
2018-08-27T02:36:44.171Z,71.58
2018-08-27T02:39:13.792Z,71.30
2018-08-27T02:41:42.292Z,71.25
2018-08-27T02:44:10.468Z,71.75
2018-08-27T02:46:38.655Z,71.60
2018-08-27T02:49:06.975Z,72.10
2018-08-27T02:51:35.172Z,72.77
2018-08-27T02:54:03.396Z,72.84
2018-08-27T02:56:31.575Z,72.84
2018-08-27T02:58:59.744Z,72.23
2018-08-27T03:01:27.942Z,72.32
2018-08-27T03:03:56.107Z,73.05
2018-08-27T03:06:24.306Z,73.12
2018-08-27T03:08:52.487Z,72.71
2018-08-27T03:11:20.675Z,72.93
2018-08-27T03:13:48.869Z,73.37
2018-08-27T03:16:17.059Z,71.78
2018-08-27T03:18:45.259Z,72.27
2018-08-27T03:21:13.459Z,72.62
2018-08-27T03:23:41.640Z,72.95
2018-08-27T03:26:09.853Z,72.28
2018-08-27T03:28:38.059Z,72.73
2018-08-27T03:31:06.296Z,72.93
2018-08-27T03:33:34.476Z,72.45
2018-08-27T03:36:02.663Z,72.48
2018-08-27T03:38:30.877Z,72.44
2018-08-27T03:40:59.064Z,72.89
2018-08-27T03:43:27.240Z,72.75
2018-08-27T03:45:55.429Z,72.65
2018-08-27T03:48:23.673Z,72.56
2018-08-27T03:50:51.820Z,72.39
2018-08-27T03:53:20.027Z,72.63
2018-08-27T03:55:48.232Z,72.35
2018-08-27T03:58:16.414Z,72.70
2018-08-27T04:00:44.596Z,72.10
2018-08-27T04:03:12.800Z,72.23
2018-08-27T04:05:41.043Z,72.80
2018-08-27T04:08:09.248Z,72.91
2018-08-27T04:10:37.433Z,72.64
2018-08-27T04:13:05.644Z,72.65
2018-08-27T04:15:33.863Z,73.07
2018-08-27T04:18:02.061Z,72.67
2018-08-27T04:20:30.231Z,72.91
2018-08-27T04:22:58.428Z,73.22
2018-08-27T04:25:26.636Z,73.30
2018-08-27T04:27:54.820Z,73.36
2018-08-27T04:30:23.016Z,72.84
2018-08-27T04:32:51.207Z,72.97
2018-08-27T04:35:19.375Z,72.32
2018-08-27T04:37:47.555Z,72.73
2018-08-27T04:40:15.796Z,72.68
2018-08-27T04:42:44.018Z,73.03
2018-08-27T04:45:12.189Z,73.24
2018-08-27T04:47:40.371Z,73.52
2018-08-27T04:50:08.645Z,73.47
2018-08-27T04:52:36.824Z,73.09
2018-08-27T04:55:05.172Z,73.07
2018-08-27T04:57:33.339Z,73.37
2018-08-27T05:00:05.192Z,73.60
2018-08-27T05:02:33.735Z,73.41
2018-08-27T05:05:02.116Z,73.15
2018-08-27T05:07:30.291Z,73.55
2018-08-27T05:09:58.474Z,73.76
2018-08-27T05:12:26.672Z,73.06
2018-08-27T05:14:54.867Z,73.14
2018-08-27T05:17:23.039Z,73.17
2018-08-27T05:19:51.209Z,72.71
2018-08-27T05:22:19.423Z,73.40
2018-08-27T05:24:47.604Z,73.44
2018-08-27T05:27:15.774Z,72.64
2018-08-27T05:29:44.000Z,72.09
2018-08-27T05:32:12.189Z,72.62
2018-08-27T05:34:40.371Z,73.10
2018-08-27T05:37:08.560Z,73.28
2018-08-27T05:39:37.007Z,73.47
2018-08-27T05:42:05.187Z,74.10
2018-08-27T05:44:33.401Z,73.84
2018-08-27T05:47:01.917Z,74.09
2018-08-27T05:49:30.908Z,74.17
2018-08-27T05:51:59.136Z,74.15
2018-08-27T05:54:27.397Z,73.48
2018-08-27T05:56:55.707Z,73.58
2018-08-27T05:59:24.348Z,73.29
2018-08-27T06:01:53.654Z,73.81
2018-08-27T06:04:22.576Z,73.96
2018-08-27T06:06:52.148Z,73.82
2018-08-27T06:09:20.382Z,73.90
2018-08-27T06:11:48.596Z,73.70
2018-08-27T06:14:16.780Z,72.91
2018-08-27T06:16:44.951Z,73.21
2018-08-27T06:19:13.246Z,73.03
2018-08-27T06:21:41.508Z,73.42
2018-08-27T06:24:09.763Z,73.82
2018-08-27T06:26:37.955Z,73.70
2018-08-27T06:29:06.168Z,73.79
2018-08-27T06:31:34.351Z,73.62
2018-08-27T06:34:02.593Z,72.96
2018-08-27T06:36:30.827Z,73.43
2018-08-27T06:38:58.996Z,73.50
2018-08-27T06:41:27.292Z,73.47
2018-08-27T06:43:55.489Z,73.36
2018-08-27T06:46:23.712Z,73.17
2018-08-27T06:48:51.956Z,73.46
2018-08-27T06:51:20.176Z,73.32
2018-08-27T06:53:48.368Z,72.58
2018-08-27T06:56:16.559Z,72.84
2018-08-27T06:58:44.776Z,73.01
2018-08-27T07:01:12.968Z,73.10
2018-08-27T07:03:41.153Z,73.07
2018-08-27T07:06:09.400Z,73.16
2018-08-27T07:08:37.585Z,73.27
2018-08-27T07:11:05.827Z,73.53
2018-08-27T07:13:34.200Z,73.36
2018-08-27T07:16:02.579Z,73.21
2018-08-27T07:18:30.858Z,72.68
2018-08-27T07:20:59.152Z,72.75
2018-08-27T07:23:27.387Z,72.96
2018-08-27T07:25:55.651Z,72.99
2018-08-27T07:28:23.869Z,72.72
2018-08-27T07:30:52.095Z,72.72
2018-08-27T07:33:20.284Z,72.44
2018-08-27T07:35:48.493Z,72.06
2018-08-27T07:38:16.821Z,72.37
2018-08-27T07:40:45.017Z,72.37
2018-08-27T07:43:13.236Z,71.35
2018-08-27T07:45:41.967Z,70.78
2018-08-27T07:48:10.163Z,71.02
2018-08-27T07:50:38.385Z,71.30
2018-08-27T07:53:06.596Z,71.56
2018-08-27T07:55:34.811Z,71.31
2018-08-27T07:58:03.005Z,71.35
2018-08-27T08:00:31.220Z,71.61
2018-08-27T08:02:59.428Z,71.54
2018-08-27T08:05:27.637Z,71.18
2018-08-27T08:07:56.437Z,71.10
2018-08-27T08:10:24.610Z,71.05
2018-08-27T08:12:52.981Z,71.02
2018-08-27T08:15:21.512Z,70.92
2018-08-27T08:17:49.920Z,69.05
2018-08-27T08:20:18.526Z,69.09
2018-08-27T08:22:46.918Z,69.94
2018-08-27T08:25:15.295Z,69.66
2018-08-27T08:27:43.519Z,69.83
2018-08-27T08:30:11.745Z,69.56
2018-08-27T08:32:39.956Z,69.98
2018-08-27T08:35:08.359Z,70.13
2018-08-27T08:37:36.565Z,70.83
2018-08-27T08:40:04.847Z,70.44
2018-08-27T08:42:32.983Z,69.96
2018-08-27T08:45:01.180Z,69.75
2018-08-27T08:47:29.420Z,70.47
2018-08-27T08:49:57.725Z,69.99
2018-08-27T08:52:25.975Z,70.13
2018-08-27T08:54:54.355Z,70.27
2018-08-27T08:57:22.683Z,70.54
2018-08-27T08:59:50.884Z,70.32
2018-08-27T09:02:19.137Z,69.51
2018-08-27T09:04:48.453Z,69.82
2018-08-27T09:07:16.643Z,69.54
2018-08-27T09:09:44.883Z,69.67
2018-08-27T09:12:13.161Z,69.29
2018-08-27T09:14:41.403Z,68.68
2018-08-27T09:17:09.618Z,67.82
2018-08-27T09:19:37.787Z,67.35
2018-08-27T09:22:06.060Z,67.17
2018-08-27T09:24:34.243Z,67.58
2018-08-27T09:27:02.433Z,67.71
2018-08-27T09:29:30.754Z,65.89
2018-08-27T09:31:58.968Z,66.23
2018-08-27T09:34:27.175Z,65.82
2018-08-27T09:36:55.410Z,67.22
2018-08-27T09:39:23.572Z,66.47
2018-08-27T09:41:51.768Z,65.86
2018-08-27T09:44:20.029Z,65.56
2018-08-27T09:46:48.252Z,65.48
2018-08-27T09:49:16.427Z,64.25
2018-08-27T09:51:44.606Z,65.65
2018-08-27T09:54:12.794Z,63.81
2018-08-27T09:56:40.998Z,62.96
2018-08-27T09:59:09.542Z,62.13
2018-08-27T10:01:38.725Z,62.37
2018-08-27T10:04:07.070Z,61.29
2018-08-27T10:06:36.304Z,61.60
2018-08-27T10:09:05.871Z,62.03
2018-08-27T10:11:33.982Z,61.55
2018-08-27T10:14:02.232Z,61.77
2018-08-27T10:16:30.436Z,61.55
2018-08-27T10:18:58.602Z,61.70
2018-08-27T10:21:26.827Z,61.52
2018-08-27T10:23:55.019Z,61.75
2018-08-27T10:26:23.325Z,61.46
2018-08-27T10:28:51.468Z,60.97
2018-08-27T10:31:19.628Z,61.19
2018-08-27T10:33:47.820Z,61.19
2018-08-27T10:36:16.041Z,60.83
2018-08-27T10:38:44.215Z,60.16
2018-08-27T10:41:12.390Z,60.78
2018-08-27T10:43:40.590Z,58.45
2018-08-27T10:46:08.767Z,57.22
2018-08-27T10:48:36.949Z,57.99
2018-08-27T10:51:05.144Z,56.69
2018-08-27T10:53:33.323Z,56.72
2018-08-27T10:56:01.576Z,56.72
2018-08-27T10:58:29.809Z,57.81
2018-08-27T11:00:57.948Z,55.62
2018-08-27T11:03:26.111Z,54.52
2018-08-27T11:05:54.303Z,51.41
2018-08-27T11:08:22.470Z,52.50
2018-08-27T11:10:50.780Z,51.23
2018-08-27T11:13:18.880Z,49.76
2018-08-27T11:15:47.083Z,49.92
2018-08-27T11:18:15.269Z,49.84
2018-08-27T11:20:43.618Z,48.93
2018-08-27T11:23:11.624Z,48.17
2018-08-27T11:25:39.803Z,48.60
2018-08-27T11:28:08.048Z,48.22
2018-08-27T11:30:36.309Z,47.41
2018-08-27T11:33:04.568Z,47.64
2018-08-27T11:35:32.683Z,47.90
2018-08-27T11:38:00.916Z,46.69
2018-08-27T11:40:29.757Z,47.58
2018-08-27T11:42:57.948Z,46.35
2018-08-27T11:45:26.140Z,45.20
2018-08-27T11:47:54.321Z,46.27
2018-08-27T11:50:22.626Z,47.21
2018-08-27T11:52:50.828Z,48.63
2018-08-27T11:55:19.888Z,49.26
2018-08-27T11:57:48.079Z,49.76
2018-08-27T12:00:21.481Z,47.85
2018-08-27T12:02:49.685Z,48.79
2018-08-27T12:05:17.883Z,47.82
2018-08-27T12:07:46.064Z,47.92
2018-08-27T12:10:14.248Z,45.61
2018-08-27T12:12:42.530Z,45.99
2018-08-27T12:15:10.729Z,44.34
2018-08-27T12:17:38.932Z,43.21
2018-08-27T12:20:07.155Z,43.43
2018-08-27T12:22:35.350Z,43.59
2018-08-27T12:25:03.536Z,43.56
2018-08-27T12:27:31.724Z,42.77
2018-08-27T12:29:59.912Z,42.67
2018-08-27T12:32:28.132Z,42.51
2018-08-27T12:34:56.354Z,41.20
2018-08-27T12:37:24.616Z,41.93
2018-08-27T12:39:52.819Z,41.86
2018-08-27T12:42:21.024Z,40.79
2018-08-27T12:44:49.237Z,42.19
2018-08-27T12:47:18.148Z,41.93
2018-08-27T12:49:46.595Z,41.64
2018-08-27T12:52:14.816Z,41.90
2018-08-27T12:54:43.787Z,41.11
2018-08-27T12:57:11.983Z,40.62
2018-08-27T12:59:40.382Z,41.22
2018-08-27T13:02:08.570Z,39.95
2018-08-27T13:04:37.264Z,40.31
2018-08-27T13:07:06.212Z,40.82
2018-08-27T13:09:34.447Z,40.70
2018-08-27T13:12:02.677Z,40.80
2018-08-27T13:14:30.875Z,40.35
2018-08-27T13:16:59.075Z,39.65
2018-08-27T13:19:27.252Z,39.21
2018-08-27T13:21:55.549Z,38.94
2018-08-27T13:24:24.003Z,38.01
2018-08-27T13:26:52.245Z,38.68
2018-08-27T13:29:20.613Z,39.54
2018-08-27T13:31:49.874Z,38.69
2018-08-27T13:34:18.667Z,39.40
2018-08-27T13:36:47.780Z,39.65
2018-08-27T13:39:16.381Z,40.17
2018-08-27T13:41:44.769Z,39.86
2018-08-27T13:44:14.907Z,39.64
2018-08-27T13:46:43.167Z,40.09
2018-08-27T13:49:11.497Z,40.02
2018-08-27T13:51:44.893Z,40.59
2018-08-27T13:54:13.163Z,40.22
2018-08-27T13:56:41.776Z,40.05
2018-08-27T13:59:10.079Z,39.74
2018-08-27T14:01:38.388Z,39.05
2018-08-27T14:04:06.755Z,39.31
2018-08-27T14:06:35.324Z,38.95
2018-08-27T14:09:03.988Z,39.12
2018-08-27T14:11:32.204Z,39.64
2018-08-27T14:14:01.443Z,39.47
2018-08-27T14:16:29.671Z,39.94
2018-08-27T14:18:57.862Z,40.57
2018-08-27T14:21:26.054Z,41.19
2018-08-27T14:23:54.239Z,40.70
2018-08-27T14:26:22.526Z,41.27
2018-08-27T14:28:50.629Z,41.78
2018-08-27T14:31:18.848Z,40.63
2018-08-27T14:33:47.155Z,41.41
2018-08-27T14:36:15.346Z,40.36
2018-08-27T14:38:43.652Z,41.12
2018-08-27T14:41:11.968Z,41.40
2018-08-27T14:43:40.036Z,41.11
2018-08-27T14:46:08.405Z,41.23
2018-08-27T14:48:36.615Z,40.33
2018-08-27T14:51:05.012Z,40.32
2018-08-27T14:53:33.195Z,41.18
2018-08-27T14:56:01.449Z,39.99
2018-08-27T14:58:29.571Z,39.49
2018-08-27T15:01:03.214Z,40.54
2018-08-27T15:03:31.581Z,40.49
2018-08-27T15:06:00.184Z,39.75
2018-08-27T15:08:28.852Z,40.19
2018-08-27T15:10:57.459Z,39.63
2018-08-27T15:13:25.635Z,40.14
2018-08-27T15:15:53.830Z,40.29
2018-08-27T15:18:22.008Z,40.96
2018-08-27T15:20:50.428Z,40.98
2018-08-27T15:23:18.637Z,40.54
2018-08-27T15:25:46.816Z,40.09
2018-08-27T15:28:15.005Z,39.70
2018-08-27T15:30:43.280Z,39.41
2018-08-27T15:33:11.488Z,40.17
2018-08-27T15:35:39.740Z,41.00
2018-08-27T15:38:09.786Z,41.52
2018-08-27T15:40:37.998Z,41.85
2018-08-27T15:43:06.460Z,42.38
2018-08-27T15:45:39.964Z,42.38
2018-08-27T15:48:08.160Z,42.45
2018-08-27T15:50:36.353Z,42.31
2018-08-27T15:53:04.510Z,42.45
2018-08-27T15:55:32.696Z,42.58
2018-08-27T15:58:00.869Z,42.97
2018-08-27T16:00:29.108Z,42.81
2018-08-27T16:02:57.428Z,42.79
2018-08-27T16:05:25.557Z,42.80
2018-08-27T16:07:53.840Z,43.75
2018-08-27T16:10:22.008Z,43.35
2018-08-27T16:12:50.191Z,43.44
2018-08-27T16:15:18.379Z,43.02
2018-08-27T16:17:46.579Z,43.37
2018-08-27T16:20:14.778Z,44.00
2018-08-27T16:22:42.914Z,44.04
2018-08-27T16:25:11.089Z,44.32
2018-08-27T16:27:40.232Z,44.46
2018-08-27T16:30:10.254Z,43.75
2018-08-27T16:32:39.016Z,43.69
2018-08-27T16:35:07.318Z,44.32
2018-08-27T16:37:35.633Z,44.05
2018-08-27T16:40:04.206Z,44.18
2018-08-27T16:42:32.175Z,44.53
2018-08-27T16:45:00.444Z,45.11
2018-08-27T16:47:28.712Z,44.83
2018-08-27T16:49:56.901Z,45.37
2018-08-27T16:52:25.206Z,45.63
2018-08-27T16:54:53.403Z,45.43
2018-08-27T16:57:21.571Z,45.88
2018-08-27T16:59:49.739Z,45.63
2018-08-27T17:02:17.941Z,45.44
2018-08-27T17:04:46.119Z,45.26
2018-08-27T17:07:14.353Z,44.88
2018-08-27T17:09:42.589Z,45.28
2018-08-27T17:12:10.932Z,45.16
2018-08-27T17:14:39.196Z,45.41
2018-08-27T17:17:07.588Z,44.85
2018-08-27T17:19:35.971Z,45.04
2018-08-27T17:22:04.239Z,45.26
2018-08-27T17:24:32.489Z,45.27
2018-08-27T17:27:00.771Z,45.15
2018-08-27T17:29:29.069Z,45.38
2018-08-27T17:31:57.285Z,45.28
2018-08-27T17:34:25.599Z,44.94
2018-08-27T17:36:53.811Z,44.57
2018-08-27T17:39:22.264Z,44.75
2018-08-27T17:41:50.353Z,45.38
2018-08-27T17:44:18.549Z,45.27
2018-08-27T17:46:46.728Z,45.90
2018-08-27T17:49:14.927Z,46.43
2018-08-27T17:51:43.130Z,46.06
2018-08-27T17:54:11.316Z,46.14
2018-08-27T17:56:39.480Z,47.02
2018-08-27T17:59:07.670Z,46.72
2018-08-27T18:01:35.861Z,47.21
2018-08-27T18:04:04.044Z,47.17
2018-08-27T18:06:32.236Z,47.91
2018-08-27T18:09:00.424Z,47.92
2018-08-27T18:11:28.631Z,48.47
2018-08-27T18:13:56.822Z,48.74
2018-08-27T18:16:25.020Z,49.21
2018-08-27T18:18:53.217Z,49.74
2018-08-27T18:21:21.508Z,49.76
2018-08-27T18:23:49.698Z,50.17
2018-08-27T18:26:18.000Z,49.77
2018-08-27T18:28:46.868Z,50.03
2018-08-27T18:31:15.447Z,49.72
2018-08-27T18:33:43.707Z,48.74
2018-08-27T18:36:12.053Z,49.36
2018-08-27T18:38:40.237Z,49.60
2018-08-27T18:41:08.444Z,49.70
2018-08-27T18:43:37.282Z,49.57
2018-08-27T18:46:05.715Z,49.47
2018-08-27T18:48:34.160Z,49.27
2018-08-27T18:51:03.334Z,49.16
2018-08-27T18:53:31.636Z,48.72
2018-08-27T18:56:00.012Z,49.06
2018-08-27T18:58:28.300Z,49.11
2018-08-27T19:00:56.483Z,49.26
2018-08-27T19:03:24.671Z,49.48
2018-08-27T19:05:52.851Z,49.53
2018-08-27T19:08:21.032Z,49.81
2018-08-27T19:10:49.241Z,50.26
2018-08-27T19:13:17.440Z,50.74
2018-08-27T19:15:45.832Z,50.03
2018-08-27T19:18:14.027Z,50.51
2018-08-27T19:20:42.289Z,50.35
2018-08-27T19:23:10.519Z,50.08
2018-08-27T19:25:38.743Z,50.44
2018-08-27T19:28:07.067Z,50.49
2018-08-27T19:30:35.264Z,50.31
2018-08-27T19:33:04.606Z,50.29
2018-08-27T19:35:32.908Z,50.47
2018-08-27T19:38:01.185Z,50.42
2018-08-27T19:40:29.428Z,50.03
2018-08-27T19:42:57.651Z,50.63
2018-08-27T19:45:25.791Z,50.65
2018-08-27T19:47:55.017Z,50.43
2018-08-27T19:50:23.343Z,50.49
2018-08-27T19:52:52.025Z,50.77
2018-08-27T19:55:20.297Z,50.99
2018-08-27T19:57:49.562Z,50.94
2018-08-27T20:00:18.420Z,50.88
2018-08-27T20:02:46.617Z,50.62
2018-08-27T20:05:14.806Z,51.20
2018-08-27T20:07:42.981Z,50.83
2018-08-27T20:10:11.576Z,50.59
2018-08-27T20:12:39.799Z,51.51
2018-08-27T20:15:08.017Z,50.87
2018-08-27T20:17:36.193Z,50.84
2018-08-27T20:20:04.453Z,49.98
2018-08-27T20:22:32.632Z,50.49
2018-08-27T20:25:00.836Z,50.52
2018-08-27T20:27:29.047Z,50.10
2018-08-27T20:29:57.237Z,49.96
2018-08-27T20:32:25.423Z,50.39
2018-08-27T20:34:53.627Z,50.19
2018-08-27T20:37:21.834Z,49.91
2018-08-27T20:39:50.036Z,50.54
2018-08-27T20:42:18.264Z,50.75
2018-08-27T20:44:46.505Z,50.26
2018-08-27T20:47:14.695Z,50.37
2018-08-27T20:49:42.895Z,50.63
2018-08-27T20:52:11.168Z,50.81
2018-08-27T20:54:39.364Z,50.37
2018-08-27T20:57:07.588Z,50.63
2018-08-27T20:59:35.895Z,50.54
2018-08-27T21:02:04.082Z,50.65
2018-08-27T21:04:32.260Z,50.10
2018-08-27T21:07:00.467Z,50.52
2018-08-27T21:09:28.658Z,50.88
2018-08-27T21:11:56.852Z,50.71
2018-08-27T21:14:45.797Z,50.63
2018-08-27T21:17:13.989Z,51.13
2018-08-27T21:19:42.162Z,51.32
2018-08-27T21:22:10.424Z,51.39
2018-08-27T21:24:38.612Z,52.17
2018-08-27T21:27:06.831Z,52.38
2018-08-27T21:29:35.024Z,52.52
2018-08-27T21:32:03.207Z,51.81
2018-08-27T21:34:31.395Z,52.02
2018-08-27T21:36:59.588Z,52.49
2018-08-27T21:39:27.768Z,52.94
2018-08-27T21:41:55.968Z,53.65
2018-08-27T21:44:24.158Z,53.73
2018-08-27T21:46:52.364Z,54.26
2018-08-27T21:49:20.561Z,54.27
2018-08-27T21:51:48.760Z,55.22
2018-08-27T21:54:16.971Z,55.53
2018-08-27T21:56:45.175Z,55.34
2018-08-27T21:59:13.387Z,56.25
2018-08-27T22:01:41.571Z,55.54
2018-08-27T22:04:12.268Z,55.56
2018-08-27T22:06:41.795Z,55.70
2018-08-27T22:09:10.211Z,55.68
2018-08-27T22:11:38.431Z,56.01
2018-08-27T22:14:06.654Z,55.64
2018-08-27T22:16:34.944Z,56.11
2018-08-27T22:19:03.856Z,56.65
2018-08-27T22:21:32.445Z,56.61
2018-08-27T22:24:01.442Z,56.04
2018-08-27T22:26:29.711Z,56.21
2018-08-27T22:28:58.292Z,56.42
2018-08-27T22:31:26.686Z,55.68
2018-08-27T22:33:54.949Z,55.98
2018-08-27T22:36:23.158Z,56.83
2018-08-27T22:38:51.378Z,57.01
2018-08-27T22:41:19.560Z,57.00
2018-08-27T22:43:48.487Z,57.10
2018-08-27T22:46:16.766Z,57.55
2018-08-27T22:48:44.977Z,57.41
2018-08-27T22:51:13.180Z,57.70
2018-08-27T22:53:41.376Z,57.05
2018-08-27T22:56:09.690Z,57.18
2018-08-27T22:58:37.888Z,57.63
2018-08-27T23:01:06.148Z,57.97
2018-08-27T23:03:39.662Z,57.38
2018-08-27T23:06:07.919Z,57.62
2018-08-27T23:08:36.115Z,57.09
2018-08-27T23:11:04.307Z,56.86
2018-08-27T23:13:32.576Z,57.17
2018-08-27T23:16:00.755Z,57.34
2018-08-27T23:18:29.174Z,57.65
2018-08-27T23:20:57.428Z,57.68
2018-08-27T23:23:25.635Z,58.10
2018-08-27T23:25:53.823Z,58.22
2018-08-27T23:28:22.043Z,58.33
2018-08-27T23:30:50.244Z,58.21
2018-08-27T23:33:18.453Z,58.28
2018-08-27T23:35:46.659Z,58.47
2018-08-27T23:38:14.860Z,58.30
2018-08-27T23:40:43.070Z,58.37
2018-08-27T23:43:11.277Z,58.28
2018-08-27T23:45:39.462Z,58.71
2018-08-27T23:48:07.663Z,58.35
2018-08-27T23:50:35.875Z,58.11
2018-08-27T23:53:04.082Z,58.14
2018-08-27T23:55:32.278Z,58.12
2018-08-27T23:58:00.471Z,58.30
